• Join FlightAware (Why Join?)
  • Login
  • US Flag 
03:36PM EST


 

Airport Tracker/Info


-or-


 

Live Flight TrackerFlight Track Log ✈ JIA2328 ✈ 02-May-2013 ✈ KCLT - KOAJ

Flight Track Log - Related Links

Times and Time Zones

All times are in EDT time to prevent confusion due to time zone crossing. See the JIA2328 flight status page for this flight to view local times or setup timezone preferences in your user account.

Time Position Orientation Groundspeed Altitude Reporting Facility
EDT Latitude Longitude Course Direction KTS MPH feet Rate Location/Type
06:24PM 35.2283 -80.9394 106° East 149 171 1,600  Level Atlanta Center
06:25PM 35.2944 -80.9089 21° North 233 268 4,000 2,098 Climbing Atlanta Center
06:26PM 35.1000 -80.6470 90° East  Level FlightAware Approximate
06:26PM 35.2878 -80.8125 95° East 274 315 7,300  Level Atlanta Center
06:27PM 35.0702 -80.5289 109° East  Level FlightAware Approximate
06:27PM 35.2522 -80.7300 118° Southeast 279 321 9,900  Level Atlanta Center
06:28PM 35.0451 -80.4091 106° East  Level FlightAware Approximate
06:28PM 35.2122 -80.6450 120° Southeast 284 327 11,800  Level Atlanta Center
06:29PM 35.0168 -80.2898 106° East  Level FlightAware Approximate
06:29PM 35.1678 -80.5428 118° Southeast 295 339 14,000  Level Atlanta Center
06:32PM 35.0650 -80.3219 120° Southeast 320 368 18,000 1,455 Climbing Washington Center
06:33PM 35.0189 -80.2203 119° Southeast 325 374 18,900 496 Climbing Washington Center
06:34PM 34.9772 -80.1142 116° Southeast 342 394 19,000 50 Climbing Washington Center
06:35PM 34.9522 -80.0036 105° East 342 394 19,000  Level Washington Center
06:36PM 34.9356 -79.8889 100° East 337 388 19,000  Level Washington Center
06:37PM 34.9436 -79.7728 85° East 337 388 19,000  Level Washington Center
06:38PM 34.9481 -79.6514 87° East 343 395 19,000  Level Washington Center
06:39PM 34.9539 -79.5325 87° East 343 395 19,000  Level Washington Center
06:40PM 34.9578 -79.4136 88° East 348 400 19,000  Level Washington Center
06:41PM 34.9658 -79.2922 85° East 348 400 19,000  Level Washington Center
06:42PM 34.9714 -79.1758 87° East 348 400 19,000  Level Washington Center
06:43PM 34.9750 -79.0594 88° East 348 400 19,000  Level Washington Center
06:44PM 34.9825 -78.9408 86° East 348 400 19,000  Level Washington Center
06:45PM 34.9775 -78.8214 93° East 348 400 19,000 -151 Level Washington Center
06:46PM 34.9639 -78.7067 98° East 348 400 18,700 -639 Descending Washington Center
06:47PM 34.9500 -78.5922 98° East 348 400 17,700 -1,160 Descending Washington Center
06:48PM 34.9381 -78.4878 98° East 342 394 16,400 -1,311 Descending Washington Center
06:49PM 34.9256 -78.3911 99° East 323 372 15,100 -1,279 Descending Washington Center
06:50PM 34.9133 -78.2894 98° East 311 358 13,800 -1,339 Descending Washington Center
06:51PM 34.9008 -78.1928 99° East 306 352 12,400 -1,678 Descending Washington Center
06:52PM 34.8883 -78.0986 99° East 293 337 10,500 -1,966 Descending Washington Center
06:53PM 34.8653 -78.0069 107° East 281 323 8,500 -1,934 Descending Washington Center
06:54PM 34.8356 -77.9225 113° Southeast 281 323 6,600 -1,785 Descending Washington Center
06:55PM 34.8036 -77.8458 117° Southeast 268 308 4,900 -1,736 Descending Washington Center
06:56PM 34.7736 -77.7717 116° Southeast 256 295 3,100 -1,300 Descending Washington Center
06:57PM 34.7519 -77.7103 113° Southeast 226 260 2,300 -864 Descending Washington Center
06:58PM 34.7756 -77.6756 50° Northeast 157 181 1,400 -931 Descending Washington Center